createdAt,value
2018-03-28T00:00:25.128Z,68.90
2018-03-28T00:02:55.124Z,68.80
2018-03-28T00:05:25.087Z,68.80
2018-03-28T00:07:55.221Z,70.40
2018-03-28T00:10:25.229Z,69.70
2018-03-28T00:12:54.460Z,69.70
2018-03-28T00:15:23.970Z,71.20
2018-03-28T00:17:53.166Z,71.00
2018-03-28T00:20:22.354Z,71.50
2018-03-28T00:22:51.526Z,72.40
2018-03-28T00:25:21.515Z,73.70
2018-03-28T00:27:50.779Z,73.70
2018-03-28T00:30:19.987Z,73.10
2018-03-28T00:32:49.337Z,73.50
2018-03-28T00:35:18.532Z,74.40
2018-03-28T00:37:47.728Z,75.10
2018-03-28T00:40:34.094Z,76.20
2018-03-28T00:43:03.376Z,76.00
2018-03-28T00:45:33.370Z,76.80
2018-03-28T00:48:03.346Z,77.40
2018-03-28T00:50:32.579Z,77.40
2018-03-28T00:53:01.814Z,78.40
2018-03-28T00:55:31.789Z,78.60
2018-03-28T00:58:01.104Z,78.60
2018-03-28T01:00:30.347Z,79.80
2018-03-28T01:02:59.631Z,81.30
2018-03-28T01:05:28.945Z,80.80
2018-03-28T01:07:58.254Z,82.00
2018-03-28T01:10:27.502Z,81.90
2018-03-28T01:12:57.547Z,83.10
2018-03-28T01:15:26.760Z,83.10
2018-03-28T01:17:56.771Z,84.20
2018-03-28T01:20:26.772Z,84.80
2018-03-28T01:22:56.078Z,84.80
2018-03-28T01:25:32.912Z,85.90
2018-03-28T01:28:02.901Z,88.10
2018-03-28T01:30:32.117Z,88.10
2018-03-28T01:33:01.342Z,88.30
2018-03-28T01:35:31.394Z,88.90
2018-03-28T01:38:01.362Z,89.40
2018-03-28T01:40:30.588Z,89.40
2018-03-28T01:42:59.831Z,89.80
2018-03-28T01:45:29.044Z,90.30
2018-03-28T01:47:59.053Z,90.60
2018-03-28T01:50:28.267Z,90.60
2018-03-28T01:52:57.454Z,90.80
2018-03-28T01:55:26.704Z,91.00
2018-03-28T01:57:55.921Z,91.10
2018-03-28T02:00:25.923Z,91.20
2018-03-28T02:02:55.128Z,91.20
2018-03-28T02:05:24.378Z,91.30
2018-03-28T02:07:57.028Z,91.50
2018-03-28T02:10:26.236Z,91.40
2018-03-28T02:12:55.417Z,91.40
2018-03-28T02:15:24.708Z,91.90
2018-03-28T02:17:54.002Z,91.60
2018-03-28T02:20:23.252Z,91.40
2018-03-28T02:22:52.474Z,91.70
2018-03-28T02:25:21.729Z,91.70
2018-03-28T02:27:51.016Z,91.80
2018-03-28T02:30:20.191Z,91.70
2018-03-28T02:32:49.417Z,91.90
2018-03-28T02:35:18.625Z,91.90
2018-03-28T02:37:47.963Z,92.10
2018-03-28T02:40:17.278Z,92.30
2018-03-28T02:42:46.589Z,92.20
2018-03-28T02:45:15.811Z,92.20
2018-03-28T02:47:45.115Z,92.30
2018-03-28T02:50:14.278Z,92.30
2018-03-28T02:52:44.350Z,92.30
2018-03-28T02:55:24.915Z,92.30
2018-03-28T02:57:54.254Z,92.60
2018-03-28T03:00:23.560Z,92.50
2018-03-28T03:02:52.803Z,92.90
2018-03-28T03:05:22.757Z,92.60
2018-03-28T03:07:52.010Z,92.60
2018-03-28T03:10:21.265Z,92.60
2018-03-28T03:12:51.353Z,93.00
2018-03-28T03:15:20.562Z,92.90
2018-03-28T03:17:49.876Z,92.90
2018-03-28T03:20:19.063Z,93.20
2018-03-28T03:22:48.293Z,92.90
2018-03-28T03:25:17.482Z,93.00
2018-03-28T03:27:46.825Z,92.90
2018-03-28T03:30:16.145Z,93.10
2018-03-28T03:32:45.290Z,93.40
2018-03-28T03:35:14.661Z,93.40
2018-03-28T03:37:54.978Z,93.60
2018-03-28T03:40:24.141Z,93.60
2018-03-28T03:42:53.435Z,93.60
2018-03-28T03:45:22.651Z,93.50
2018-03-28T03:47:51.880Z,93.70
2018-03-28T03:50:21.046Z,93.70
2018-03-28T03:52:50.353Z,93.70
2018-03-28T03:55:19.589Z,93.70
2018-03-28T03:57:48.812Z,93.70
2018-03-28T04:00:18.097Z,93.80
2018-03-28T04:02:47.325Z,94.00
2018-03-28T04:05:17.391Z,94.30
2018-03-28T04:07:46.593Z,94.30
2018-03-28T04:10:15.897Z,94.20
2018-03-28T04:12:45.135Z,94.30
2018-03-28T04:15:14.391Z,94.20
2018-03-28T04:17:43.587Z,94.20
2018-03-28T04:20:17.798Z,94.60
2018-03-28T04:22:47.175Z,94.30
2018-03-28T04:25:16.492Z,94.20
2018-03-28T04:27:45.725Z,94.20
2018-03-28T04:30:14.903Z,94.00
2018-03-28T04:32:44.223Z,94.20
2018-03-28T04:35:13.535Z,94.20
2018-03-28T04:37:42.751Z,94.30
2018-03-28T04:40:11.920Z,94.40
2018-03-28T04:42:41.871Z,95.20
2018-03-28T04:45:11.196Z,95.20
2018-03-28T04:47:40.462Z,95.20
2018-03-28T04:50:09.824Z,95.40
2018-03-28T04:52:39.134Z,95.40
2018-03-28T04:55:08.417Z,95.20
2018-03-28T04:57:47.759Z,95.00
2018-03-28T05:00:16.971Z,95.10
2018-03-28T05:02:46.960Z,94.90
2018-03-28T05:05:16.149Z,94.90
2018-03-28T05:07:45.464Z,94.80
2018-03-28T05:10:14.739Z,94.90
2018-03-28T05:12:44.065Z,95.00
2018-03-28T05:15:13.295Z,94.50
2018-03-28T05:17:42.773Z,94.50
2018-03-28T05:20:26.075Z,94.50
2018-03-28T05:25:59.667Z,94.90
2018-03-28T05:28:28.984Z,95.10
2018-03-28T05:31:00.197Z,94.90
2018-03-28T05:33:29.434Z,95.10
2018-03-28T05:35:58.599Z,95.00
2018-03-28T05:38:36.067Z,95.20
2018-03-28T05:41:05.314Z,95.20
2018-03-28T05:43:34.630Z,95.20
2018-03-28T05:46:03.895Z,95.20
2018-03-28T05:48:33.971Z,95.40
2018-03-28T05:51:04.106Z,95.40
2018-03-28T05:53:33.311Z,95.20
2018-03-28T05:56:02.476Z,95.30
2018-03-28T05:58:31.678Z,95.00
2018-03-28T06:01:00.949Z,95.00
2018-03-28T06:03:30.167Z,95.10
2018-03-28T06:05:59.426Z,95.10
2018-03-28T06:08:29.428Z,95.10
2018-03-28T06:10:58.655Z,95.10
2018-03-28T06:13:27.909Z,95.10
2018-03-28T06:15:57.160Z,95.50
2018-03-28T06:18:26.412Z,95.20
2018-03-28T06:20:55.637Z,95.10
2018-03-28T06:23:24.823Z,95.10
2018-03-28T06:25:54.834Z,94.90
2018-03-28T06:28:24.844Z,94.80
2018-03-28T06:30:54.858Z,94.90
2018-03-28T06:33:24.050Z,94.80
2018-03-28T06:35:53.310Z,94.80
2018-03-28T06:38:22.493Z,94.70
2018-03-28T06:40:51.761Z,94.70
2018-03-28T06:43:20.970Z,94.60
2018-03-28T06:45:50.961Z,94.50
2018-03-28T06:48:20.190Z,94.50
2018-03-28T06:50:49.394Z,94.40
2018-03-28T06:53:18.667Z,94.70
2018-03-28T06:55:47.980Z,94.40
2018-03-28T06:58:17.228Z,94.30
2018-03-28T07:00:47.219Z,94.60
2018-03-28T07:03:16.535Z,94.20
2018-03-28T07:05:45.761Z,94.40
2018-03-28T07:08:14.983Z,94.30
2018-03-28T07:10:45.714Z,94.30
2018-03-28T07:13:14.931Z,94.30
2018-03-28T07:15:44.915Z,94.20
2018-03-28T07:18:14.153Z,94.20
2018-03-28T07:20:43.398Z,94.20
2018-03-28T07:23:12.607Z,94.00
2018-03-28T07:25:41.755Z,94.00
2018-03-28T07:28:10.947Z,94.40
2018-03-28T07:30:41.036Z,94.00
2018-03-28T07:33:10.245Z,94.00
2018-03-28T07:35:39.478Z,93.80
2018-03-28T07:38:08.683Z,93.90
2018-03-28T07:40:37.932Z,94.00
2018-03-28T07:43:07.850Z,94.10
2018-03-28T07:45:38.044Z,93.90
2018-03-28T07:48:07.347Z,93.90
2018-03-28T07:50:36.579Z,93.90
2018-03-28T07:53:05.788Z,93.90
2018-03-28T07:55:34.988Z,94.00
2018-03-28T07:58:04.293Z,94.00
2018-03-28T08:00:33.480Z,93.90
2018-03-28T08:03:02.719Z,93.90
2018-03-28T08:05:31.877Z,93.60
2018-03-28T08:08:01.822Z,93.10
2018-03-28T08:10:31.073Z,93.00
2018-03-28T08:13:00.276Z,93.10
2018-03-28T08:15:29.590Z,93.00
2018-03-28T08:17:58.815Z,93.10
2018-03-28T08:20:28.113Z,92.90
2018-03-28T08:22:57.309Z,92.90
2018-03-28T08:25:26.480Z,92.40
2018-03-28T08:27:55.745Z,91.70
2018-03-28T08:30:24.920Z,91.00
2018-03-28T08:32:54.991Z,89.60
2018-03-28T08:35:24.928Z,89.60
2018-03-28T08:37:54.079Z,89.60
2018-03-28T08:40:24.050Z,90.00
2018-03-28T08:42:53.312Z,90.00
2018-03-28T08:45:23.271Z,87.90
2018-03-28T08:47:52.604Z,87.80
2018-03-28T08:50:21.815Z,86.70
2018-03-28T08:52:51.028Z,85.50
2018-03-28T08:55:20.231Z,84.60
2018-03-28T08:57:49.385Z,83.00
2018-03-28T09:00:19.371Z,83.90
2018-03-28T09:02:48.686Z,83.90
2018-03-28T09:05:17.999Z,84.10
2018-03-28T09:07:47.193Z,82.60
2018-03-28T09:10:16.427Z,82.40
2018-03-28T09:12:45.614Z,83.10
2018-03-28T09:15:14.817Z,82.00
2018-03-28T09:17:44.154Z,81.20
2018-03-28T09:20:13.356Z,81.40
2018-03-28T09:22:42.681Z,81.50
2018-03-28T09:25:11.992Z,80.20
2018-03-28T09:27:41.175Z,80.30
2018-03-28T09:30:10.414Z,78.20
2018-03-28T09:32:39.646Z,77.50
2018-03-28T09:35:08.857Z,77.20
2018-03-28T09:37:38.043Z,74.00
2018-03-28T09:40:07.460Z,72.70
2018-03-28T09:42:36.700Z,72.00
2018-03-28T09:45:06.661Z,67.90
2018-03-28T09:47:36.621Z,67.50
2018-03-28T09:50:05.871Z,67.50
2018-03-28T09:52:35.156Z,67.70
2018-03-28T09:55:04.380Z,65.60
2018-03-28T09:57:33.611Z,66.20
2018-03-28T10:00:03.547Z,67.50
2018-03-28T10:02:48.436Z,65.80
2018-03-28T10:05:18.394Z,66.50
2018-03-28T10:07:47.667Z,66.50
2018-03-28T10:10:16.851Z,64.80
2018-03-28T10:12:46.047Z,64.10
2018-03-28T10:15:15.269Z,62.90
2018-03-28T10:17:44.437Z,62.50
2018-03-28T10:20:13.668Z,64.20
2018-03-28T10:22:42.960Z,64.10
2018-03-28T10:25:12.918Z,63.10
2018-03-28T10:27:42.131Z,63.20
2018-03-28T10:30:11.315Z,64.20
2018-03-28T10:32:40.546Z,61.70
2018-03-28T10:35:09.761Z,61.30
2018-03-28T10:37:38.971Z,60.60
2018-03-28T10:40:08.180Z,59.20
2018-03-28T10:42:37.414Z,58.00
2018-03-28T10:45:06.606Z,57.70
2018-03-28T10:47:35.816Z,56.40
2018-03-28T10:50:05.016Z,57.40
2018-03-28T10:52:34.227Z,56.50
2018-03-28T10:55:03.528Z,55.70
2018-03-28T10:57:32.792Z,56.10
2018-03-28T11:00:01.984Z,56.90
2018-03-28T11:02:31.242Z,58.40
2018-03-28T11:05:00.474Z,59.30
2018-03-28T11:07:29.773Z,61.10
2018-03-28T11:09:59.473Z,61.20
2018-03-28T11:12:28.687Z,61.00
2018-03-28T11:14:58.658Z,57.80
2018-03-28T11:17:27.889Z,57.70
2018-03-28T11:19:57.111Z,58.70
2018-03-28T11:22:26.337Z,56.50
2018-03-28T11:24:55.561Z,53.80
2018-03-28T11:27:24.924Z,53.20
2018-03-28T11:29:54.187Z,53.90
2018-03-28T11:32:24.273Z,53.70
2018-03-28T11:34:53.504Z,53.70
2018-03-28T11:37:22.776Z,53.30
2018-03-28T11:39:51.959Z,53.80
2018-03-28T11:42:21.927Z,53.40
2018-03-28T11:44:51.111Z,53.30
2018-03-28T11:47:21.101Z,53.10
2018-03-28T11:49:51.114Z,51.10
2018-03-28T11:52:20.316Z,51.10
2018-03-28T11:54:49.567Z,51.30
2018-03-28T11:57:18.855Z,51.10
2018-03-28T11:59:48.035Z,49.40
2018-03-28T12:02:20.117Z,49.70
2018-03-28T12:04:49.328Z,49.30
2018-03-28T12:07:18.543Z,49.90
2018-03-28T12:09:47.822Z,49.50
2018-03-28T12:12:17.804Z,50.10
2018-03-28T12:14:47.092Z,50.10
2018-03-28T12:17:16.611Z,50.40
2018-03-28T12:19:45.761Z,50.60
2018-03-28T12:22:15.763Z,52.10
2018-03-28T12:24:44.978Z,52.10
2018-03-28T12:27:14.176Z,50.90
2018-03-28T12:29:43.453Z,51.50
2018-03-28T12:32:13.403Z,52.30
2018-03-28T12:34:42.625Z,52.30
2018-03-28T12:37:11.936Z,53.30
2018-03-28T12:39:41.207Z,53.30
2018-03-28T12:42:10.425Z,52.60
2018-03-28T12:44:40.379Z,53.40
2018-03-28T12:47:09.570Z,53.40
2018-03-28T12:49:38.876Z,53.30
2018-03-28T12:52:07.992Z,53.70
2018-03-28T12:54:37.969Z,54.00
2018-03-28T12:57:08.167Z,56.80
2018-03-28T12:59:37.364Z,56.70
2018-03-28T13:02:07.356Z,56.30
2018-03-28T13:04:37.265Z,57.20
2018-03-28T13:07:06.546Z,56.80
2018-03-28T13:09:35.718Z,56.20
2018-03-28T13:12:04.952Z,56.30
2018-03-28T13:14:34.197Z,56.10
2018-03-28T13:17:03.434Z,56.10
2018-03-28T13:19:32.572Z,55.50
2018-03-28T13:22:01.791Z,56.20
2018-03-28T13:24:31.739Z,56.00
2018-03-28T13:27:00.941Z,55.90
2018-03-28T13:29:30.915Z,56.50
2018-03-28T13:32:00.205Z,56.50
2018-03-28T13:34:29.352Z,56.10
2018-03-28T13:36:59.291Z,53.60
2018-03-28T13:39:28.553Z,53.50
2018-03-28T13:41:57.866Z,51.60
2018-03-28T13:44:27.186Z,51.40
2018-03-28T13:46:56.499Z,50.10
2018-03-28T13:49:25.698Z,50.00
2018-03-28T13:51:54.867Z,49.70
2018-03-28T13:54:24.867Z,46.70
2018-03-28T13:56:54.121Z,46.70
2018-03-28T13:59:23.362Z,48.10
2018-03-28T14:01:52.584Z,47.60
2018-03-28T14:04:21.835Z,46.30
2018-03-28T14:06:51.057Z,46.30
2018-03-28T14:09:20.249Z,46.10
2018-03-28T14:11:49.494Z,45.40
2018-03-28T14:14:18.745Z,44.90
2018-03-28T14:16:47.948Z,44.20
2018-03-28T14:19:17.218Z,43.20
2018-03-28T14:21:46.533Z,45.10
2018-03-28T14:24:15.662Z,44.40
2018-03-28T14:26:45.095Z,44.50
2018-03-28T14:29:14.300Z,45.40
2018-03-28T14:31:43.506Z,45.60
2018-03-28T14:34:12.672Z,46.60
2018-03-28T14:36:41.897Z,47.50
2018-03-28T14:39:11.871Z,48.50
2018-03-28T14:41:41.070Z,48.50
2018-03-28T14:44:10.249Z,48.80
2018-03-28T14:46:39.488Z,49.40
2018-03-28T14:49:08.728Z,49.80
2018-03-28T14:51:37.910Z,50.40
2018-03-28T14:54:07.235Z,51.70
2018-03-28T14:56:36.543Z,51.70
2018-03-28T14:59:17.844Z,51.60
2018-03-28T15:01:46.991Z,53.20
2018-03-28T15:04:16.254Z,53.40
2018-03-28T15:06:45.569Z,53.30
2018-03-28T15:09:14.780Z,54.10
2018-03-28T15:11:45.499Z,55.00
2018-03-28T15:14:14.717Z,55.00
2018-03-28T15:16:43.955Z,55.90
2018-03-28T15:19:13.164Z,55.60
2018-03-28T15:21:42.334Z,56.10
2018-03-28T15:24:12.268Z,57.10
2018-03-28T15:26:41.486Z,57.00
2018-03-28T15:29:10.755Z,59.40
2018-03-28T15:31:40.752Z,61.30
2018-03-28T15:34:09.971Z,61.80
2018-03-28T15:36:39.121Z,62.70
2018-03-28T15:39:08.376Z,63.20
2018-03-28T15:41:37.637Z,64.70
2018-03-28T15:44:06.838Z,65.80
2018-03-28T15:46:36.828Z,69.00
2018-03-28T15:49:06.147Z,68.10
2018-03-28T15:51:35.458Z,71.10
2018-03-28T15:57:07.885Z,71.80
2018-03-28T15:59:37.146Z,74.40
2018-03-28T16:02:07.147Z,75.20
2018-03-28T16:04:36.330Z,75.10
2018-03-28T16:07:05.632Z,75.10
2018-03-28T16:09:34.739Z,76.70
2018-03-28T16:12:04.032Z,76.70
2018-03-28T16:14:52.416Z,79.90
2018-03-28T16:17:27.691Z,79.70
2018-03-28T16:19:56.913Z,78.60
2018-03-28T16:22:37.230Z,79.20
2018-03-28T16:25:07.124Z,79.60
2018-03-28T16:27:36.414Z,79.50
2018-03-28T16:30:05.636Z,80.90
2018-03-28T16:32:35.033Z,82.70
2018-03-28T16:35:04.243Z,84.70
2018-03-28T16:37:33.481Z,84.90
2018-03-28T16:40:02.673Z,85.00
2018-03-28T16:42:42.069Z,86.00
2018-03-28T16:45:35.900Z,88.70
2018-03-28T16:48:05.152Z,88.60
2018-03-28T16:50:38.437Z,89.40
2018-03-28T16:53:24.842Z,90.50
2018-03-28T16:56:08.504Z,90.80
2018-03-28T16:58:37.802Z,91.50
2018-03-28T17:01:07.014Z,92.00
2018-03-28T17:03:36.344Z,92.30
2018-03-28T17:06:05.546Z,92.80
2018-03-28T17:08:34.811Z,92.90
2018-03-28T17:11:04.095Z,92.80
2018-03-28T17:13:49.911Z,93.20
2018-03-28T17:16:19.844Z,93.90
2018-03-28T17:18:49.799Z,93.80
2018-03-28T17:21:18.972Z,93.80
2018-03-28T17:23:49.191Z,93.90
2018-03-28T17:26:18.380Z,93.90
2018-03-28T17:28:47.513Z,94.00
2018-03-28T17:31:16.745Z,94.10
2018-03-28T17:33:46.810Z,94.60
2018-03-28T17:36:16.121Z,94.50
2018-03-28T17:38:45.283Z,94.30
2018-03-28T17:41:14.556Z,94.80
2018-03-28T17:43:43.869Z,94.70
2018-03-28T17:46:13.134Z,94.90
2018-03-28T17:48:43.422Z,95.00
2018-03-28T17:51:12.682Z,95.00
2018-03-28T17:53:42.620Z,95.40
2018-03-28T17:56:11.892Z,95.40
2018-03-28T17:58:41.186Z,95.40
2018-03-28T18:01:10.392Z,95.60
2018-03-28T18:06:55.111Z,95.80
2018-03-28T18:09:26.261Z,95.60
2018-03-28T18:11:55.579Z,95.60
2018-03-28T18:14:24.782Z,95.60
2018-03-28T18:17:14.007Z,95.70
2018-03-28T18:19:43.159Z,95.80
2018-03-28T18:22:12.401Z,96.10
2018-03-28T18:24:41.608Z,96.00
2018-03-28T18:27:10.830Z,96.00
2018-03-28T18:29:40.027Z,95.80
2018-03-28T18:32:24.357Z,96.10
2018-03-28T18:34:53.611Z,96.20
2018-03-28T18:37:22.998Z,96.10
2018-03-28T18:39:52.289Z,96.30
2018-03-28T18:42:22.245Z,96.00
2018-03-28T18:45:15.130Z,96.00
2018-03-28T18:47:45.340Z,96.20
2018-03-28T18:50:14.490Z,95.80
2018-03-28T18:52:43.775Z,96.00
2018-03-28T18:55:13.011Z,96.00
2018-03-28T18:57:42.412Z,96.20
2018-03-28T19:00:11.539Z,96.00
2018-03-28T19:02:40.771Z,96.00
2018-03-28T19:05:10.018Z,95.90
2018-03-28T19:07:39.285Z,96.00
2018-03-28T19:10:08.495Z,96.10
2018-03-28T19:12:38.588Z,96.10
2018-03-28T19:15:07.779Z,96.00
2018-03-28T19:17:36.949Z,96.30
2018-03-28T19:20:06.113Z,96.50
2018-03-28T19:22:35.320Z,96.50
2018-03-28T19:25:04.569Z,96.70
2018-03-28T19:27:33.804Z,96.70
2018-03-28T19:30:03.715Z,97.00
2018-03-28T19:32:32.885Z,96.70
2018-03-28T19:35:02.042Z,96.70
2018-03-28T19:37:31.241Z,96.70
2018-03-28T19:40:00.461Z,96.80
2018-03-28T19:42:30.484Z,97.00
2018-03-28T19:45:00.451Z,97.10
2018-03-28T19:47:29.828Z,97.10
2018-03-28T19:50:00.041Z,97.00
2018-03-28T19:52:29.274Z,97.00
2018-03-28T19:54:58.656Z,96.60
2018-03-28T19:57:27.883Z,96.70
2018-03-28T19:59:57.136Z,96.70
2018-03-28T20:02:27.099Z,97.00
2018-03-28T20:04:56.416Z,96.90
2018-03-28T20:07:25.639Z,96.90
2018-03-28T20:09:55.053Z,96.80
2018-03-28T20:12:24.305Z,96.50
2018-03-28T20:14:54.292Z,96.60
2018-03-28T20:17:23.598Z,96.60
2018-03-28T20:19:52.823Z,96.60
2018-03-28T20:22:22.117Z,96.50
2018-03-28T20:24:51.248Z,96.60
2018-03-28T20:27:20.474Z,96.60
2018-03-28T20:29:49.705Z,96.60
2018-03-28T20:32:19.682Z,96.40
2018-03-28T20:34:48.916Z,96.40
2018-03-28T20:37:18.163Z,96.40
2018-03-28T20:39:47.375Z,96.30
2018-03-28T20:42:17.553Z,96.10
2018-03-28T20:44:46.776Z,96.10
2018-03-28T20:47:16.008Z,96.00
2018-03-28T20:49:46.100Z,95.70
2018-03-28T20:52:15.286Z,95.70
2018-03-28T20:54:44.459Z,95.80
2018-03-28T20:57:13.733Z,95.90
2018-03-28T20:59:43.043Z,95.90
2018-03-28T21:02:12.228Z,96.00
2018-03-28T21:04:41.415Z,96.10
2018-03-28T21:07:10.675Z,96.20
2018-03-28T21:09:39.892Z,96.20
2018-03-28T21:12:09.149Z,96.40
2018-03-28T21:14:39.143Z,96.30
2018-03-28T21:17:09.108Z,96.20
2018-03-28T21:19:38.368Z,96.20
2018-03-28T21:22:07.934Z,96.10
2018-03-28T21:24:37.119Z,96.00
2018-03-28T21:27:06.239Z,95.80
2018-03-28T21:29:36.977Z,96.00
2018-03-28T21:32:06.198Z,95.90
2018-03-28T21:34:35.433Z,95.80
2018-03-28T21:37:04.643Z,95.80
2018-03-28T21:39:33.851Z,95.80
2018-03-28T21:42:03.042Z,95.70
2018-03-28T21:44:32.220Z,95.60
2018-03-28T21:47:01.431Z,95.60
2018-03-28T21:49:48.555Z,95.60
2018-03-28T21:52:17.804Z,95.60
2018-03-28T21:54:47.085Z,95.70
2018-03-28T21:57:16.285Z,95.40
2018-03-28T21:59:45.537Z,95.40
2018-03-28T22:02:14.720Z,95.30
2018-03-28T22:04:43.945Z,95.10
2018-03-28T22:07:13.124Z,95.10
2018-03-28T22:09:42.301Z,95.10
2018-03-28T22:12:11.492Z,95.10
2018-03-28T22:14:40.671Z,95.10
2018-03-28T22:17:09.803Z,95.10
2018-03-28T22:19:38.972Z,95.00
2018-03-28T22:22:08.175Z,94.90
2018-03-28T22:24:37.381Z,94.60
2018-03-28T22:27:06.592Z,94.60
2018-03-28T22:29:35.932Z,94.80
2018-03-28T22:32:05.124Z,94.90
2018-03-28T22:34:35.205Z,95.00
2018-03-28T22:37:04.486Z,95.00
2018-03-28T22:39:33.689Z,95.10
2018-03-28T22:42:03.011Z,95.10
2018-03-28T22:44:32.218Z,95.00
2018-03-28T22:47:01.428Z,94.80
2018-03-28T22:49:30.709Z,94.80
2018-03-28T22:51:59.912Z,94.60
2018-03-28T22:54:29.866Z,94.20
2018-03-28T22:56:59.092Z,94.20
2018-03-28T22:59:28.277Z,94.30
2018-03-28T23:01:58.262Z,94.00
2018-03-28T23:04:27.744Z,93.90
2018-03-28T23:06:56.962Z,93.90
2018-03-28T23:09:26.270Z,93.40
2018-03-28T23:11:55.478Z,93.40
2018-03-28T23:14:24.731Z,93.10
2018-03-28T23:16:53.932Z,93.30
2018-03-28T23:19:23.102Z,93.20
2018-03-28T23:21:52.252Z,92.70
2018-03-28T23:24:21.469Z,92.10
2018-03-28T23:26:51.509Z,91.90
2018-03-28T23:29:20.878Z,91.80
2018-03-28T23:31:50.096Z,91.50
2018-03-28T23:34:19.378Z,92.00
2018-03-28T23:36:48.610Z,91.60
2018-03-28T23:39:17.775Z,91.40
2018-03-28T23:41:46.991Z,91.30
2018-03-28T23:44:17.064Z,91.20
2018-03-28T23:46:46.254Z,91.20
2018-03-28T23:49:15.431Z,91.20
2018-03-28T23:51:44.705Z,91.00
2018-03-28T23:54:13.903Z,90.80
2018-03-28T23:56:43.061Z,91.20
2018-03-28T23:59:12.352Z,90.70
